createdAt,value
2018-12-12T00:00:58.270Z,119.70
2018-12-12T00:04:52.145Z,181.32
2018-12-12T00:07:22.398Z,218.30
2018-12-12T00:09:51.818Z,271.87
2018-12-12T00:12:20.985Z,316.60
2018-12-12T00:14:50.558Z,353.83
2018-12-12T00:17:19.731Z,377.22
2018-12-12T00:19:48.950Z,396.90
2018-12-12T00:22:18.381Z,405.43
2018-12-12T00:24:47.572Z,395.57
2018-12-12T00:27:16.997Z,387.20
2018-12-12T00:29:46.241Z,377.33
2018-12-12T00:32:15.421Z,369.23
2018-12-12T00:34:44.613Z,379.80
2018-12-12T00:37:13.808Z,380.30
2018-12-12T00:39:42.972Z,399.63
2018-12-12T00:42:12.140Z,405.97
2018-12-12T00:44:41.567Z,409.57
2018-12-12T00:49:06.675Z,406.20
2018-12-12T00:51:36.315Z,406.50
2018-12-12T00:54:05.492Z,402.97
2018-12-12T00:56:34.932Z,388.37
2018-12-12T00:59:04.361Z,387.07
2018-12-12T01:06:03.098Z,415.92
2018-12-12T01:08:32.511Z,420.55
2018-12-12T01:11:19.112Z,430.93
2018-12-12T01:13:48.279Z,429.97
2018-12-12T01:16:17.445Z,446.80
2018-12-12T01:18:46.640Z,485.80
2018-12-12T01:21:15.801Z,508.03
2018-12-12T01:23:44.974Z,521.57
2018-12-12T01:26:15.006Z,516.13
2018-12-12T01:28:44.452Z,511.28
2018-12-12T01:31:13.618Z,499.70
2018-12-12T01:33:43.027Z,497.20
2018-12-12T01:36:12.195Z,489.77
2018-12-12T01:38:41.610Z,474.82
2018-12-12T01:41:10.784Z,471.07
2018-12-12T01:43:40.232Z,471.00
2018-12-12T01:46:09.412Z,482.47
2018-12-12T01:48:38.581Z,492.48
2018-12-12T02:00:59.852Z,547.00
2018-12-12T02:03:29.285Z,568.90
2018-12-12T02:05:58.449Z,579.83
2018-12-12T02:08:27.873Z,608.87
2018-12-12T02:10:57.324Z,627.67
2018-12-12T02:13:38.788Z,625.35
2018-12-12T02:16:09.782Z,633.07
2018-12-12T02:18:45.223Z,634.47
2018-12-12T02:21:14.404Z,618.13
2018-12-12T02:23:43.562Z,616.63
2018-12-12T02:26:12.752Z,615.93
2018-12-12T02:28:41.937Z,608.57
2018-12-12T02:31:11.119Z,596.87
2018-12-12T02:33:40.309Z,594.15
2018-12-12T02:36:09.487Z,582.60
2018-12-12T02:38:39.167Z,575.00
2018-12-12T02:41:08.350Z,567.57
2018-12-12T02:43:37.778Z,559.22
2018-12-12T02:46:06.955Z,549.20
2018-12-12T02:48:36.363Z,545.57
2018-12-12T02:51:05.553Z,538.73
2018-12-12T02:53:34.716Z,529.45
2018-12-12T02:56:04.124Z,521.30
2018-12-12T02:58:33.291Z,513.67
2018-12-12T03:01:02.454Z,503.13
2018-12-12T03:03:31.632Z,500.12
2018-12-12T03:06:00.790Z,489.80
2018-12-12T03:08:29.956Z,479.53
2018-12-12T03:10:59.382Z,472.83
2018-12-12T03:13:28.813Z,469.50
2018-12-12T03:15:57.998Z,464.47
2018-12-12T03:18:27.417Z,456.83
2018-12-12T03:20:56.904Z,450.80
2018-12-12T03:23:26.071Z,446.10
2018-12-12T03:25:55.489Z,438.43
2018-12-12T03:28:24.670Z,436.53
2018-12-12T03:30:54.091Z,429.67
2018-12-12T03:33:23.255Z,425.07
2018-12-12T03:35:52.420Z,422.00
2018-12-12T03:38:21.861Z,416.13
2018-12-12T03:40:51.225Z,414.70
2018-12-12T03:43:20.390Z,407.83
2018-12-12T03:45:49.564Z,404.57
2018-12-12T03:48:20.934Z,402.63
2018-12-12T03:50:50.543Z,400.27
2018-12-12T03:53:20.003Z,393.42
2018-12-12T03:55:49.172Z,388.03
2018-12-12T03:58:18.350Z,383.57
2018-12-12T04:00:47.525Z,380.13
2018-12-12T04:03:16.961Z,381.15
2018-12-12T04:05:46.199Z,371.87
2018-12-12T04:08:15.394Z,372.95
2018-12-12T04:10:44.594Z,371.37
2018-12-12T04:13:13.768Z,362.80
2018-12-12T04:15:42.973Z,357.03
2018-12-12T04:18:12.277Z,356.30
2018-12-12T04:20:41.442Z,354.23
2018-12-12T04:23:10.619Z,349.75
2018-12-12T04:25:39.787Z,344.20
2018-12-12T04:28:09.205Z,337.77
2018-12-12T04:30:38.398Z,338.73
2018-12-12T04:33:07.575Z,334.23
2018-12-12T04:35:36.752Z,329.03
2018-12-12T04:38:05.909Z,330.90
2018-12-12T04:40:35.591Z,330.90
2018-12-12T04:43:05.042Z,324.45
2018-12-12T04:45:34.479Z,321.73
2018-12-12T04:48:03.646Z,317.87
2018-12-12T04:50:33.162Z,316.27
2018-12-12T04:53:02.349Z,311.95
2018-12-12T04:55:31.511Z,313.27
2018-12-12T04:58:01.303Z,312.93
2018-12-12T05:00:30.760Z,307.87
2018-12-12T05:03:00.215Z,306.25
2018-12-12T05:05:29.483Z,300.43
2018-12-12T05:07:58.927Z,297.03
2018-12-12T05:10:28.351Z,283.43
2018-12-12T05:12:57.540Z,275.45
2018-12-12T05:15:56.622Z,271.43
2018-12-12T05:18:26.061Z,269.48
2018-12-12T05:20:55.248Z,280.37
2018-12-12T05:23:24.440Z,280.87
2018-12-12T05:25:53.605Z,290.70
2018-12-12T05:28:22.769Z,289.57
2018-12-12T05:30:51.940Z,282.63
2018-12-12T05:33:21.125Z,279.20
2018-12-12T05:35:50.569Z,269.87
2018-12-12T05:38:19.989Z,258.87
2018-12-12T05:40:49.444Z,249.07
2018-12-12T05:43:18.610Z,245.37
2018-12-12T05:45:48.329Z,240.10
2018-12-12T05:48:17.501Z,236.10
2018-12-12T05:50:46.662Z,230.70
2018-12-12T05:53:15.843Z,224.67
2018-12-12T05:55:45.796Z,240.00
2018-12-12T05:58:15.618Z,262.97
2018-12-12T06:00:45.042Z,290.00
2018-12-12T06:03:14.200Z,311.80
2018-12-12T06:05:43.380Z,326.37
2018-12-12T06:08:13.797Z,325.40
2018-12-12T06:10:42.979Z,314.60
2018-12-12T06:13:15.082Z,309.60
2018-12-12T06:15:44.249Z,306.43
2018-12-12T06:18:15.967Z,302.17
2018-12-12T06:20:45.116Z,304.10
2018-12-12T06:23:14.304Z,284.93
2018-12-12T06:25:43.473Z,322.07
2018-12-12T06:28:12.636Z,356.17
2018-12-12T06:30:41.815Z,378.47
2018-12-12T06:33:11.217Z,388.97
2018-12-12T06:35:40.438Z,389.63
2018-12-12T06:38:09.837Z,386.90
2018-12-12T06:40:39.006Z,390.33
2018-12-12T06:43:08.188Z,375.70
2018-12-12T06:45:37.691Z,365.80
2018-12-12T06:48:06.874Z,359.93
2018-12-12T06:50:36.043Z,354.07
2018-12-12T06:53:05.198Z,378.33
2018-12-12T06:55:34.359Z,381.43
2018-12-12T06:58:03.759Z,388.43
2018-12-12T07:00:32.969Z,397.77
2018-12-12T07:03:02.097Z,393.03
2018-12-12T07:05:31.709Z,388.27
2018-12-12T07:08:00.884Z,392.93
2018-12-12T07:10:30.070Z,395.87
2018-12-12T07:12:59.498Z,411.77
2018-12-12T07:15:29.014Z,421.70
2018-12-12T07:17:58.190Z,422.90
2018-12-12T07:20:27.644Z,415.57
2018-12-12T07:22:57.121Z,415.00
2018-12-12T07:25:26.305Z,433.10
2018-12-12T07:27:55.489Z,461.90
2018-12-12T07:30:24.907Z,461.13
2018-12-12T07:32:54.071Z,447.33
2018-12-12T07:35:23.236Z,430.57
2018-12-12T07:37:52.461Z,425.07
2018-12-12T07:40:21.618Z,418.07
2018-12-12T07:42:50.784Z,418.03
2018-12-12T07:45:19.958Z,415.73
2018-12-12T07:47:49.122Z,425.67
2018-12-12T07:50:18.354Z,432.57
2018-12-12T07:52:47.771Z,439.37
2018-12-12T07:55:16.931Z,431.43
2018-12-12T07:57:46.119Z,420.60
2018-12-12T08:00:15.516Z,424.07
2018-12-12T08:02:44.952Z,433.00
2018-12-12T08:05:14.109Z,427.07
2018-12-12T08:07:43.682Z,444.07
2018-12-12T08:10:13.085Z,454.83
2018-12-12T08:12:42.505Z,447.37
2018-12-12T08:15:11.686Z,433.63
2018-12-12T08:17:40.894Z,426.87
2018-12-12T08:20:10.139Z,414.03
2018-12-12T08:22:40.011Z,403.67
2018-12-12T08:25:09.176Z,393.07
2018-12-12T08:27:39.368Z,384.53
2018-12-12T08:30:09.026Z,377.47
2018-12-12T08:32:40.095Z,378.47
2018-12-12T08:35:09.268Z,391.67
2018-12-12T08:37:38.456Z,407.00
2018-12-12T08:40:09.309Z,410.87
2018-12-12T08:42:38.512Z,407.90
2018-12-12T08:45:07.688Z,412.70
2018-12-12T08:47:36.925Z,409.30
2018-12-12T08:50:08.307Z,401.73
2018-12-12T08:52:37.743Z,395.90
2018-12-12T08:55:07.480Z,391.73
2018-12-12T08:57:36.655Z,383.40
2018-12-12T09:00:08.257Z,392.83
2018-12-12T09:02:37.415Z,401.33
2018-12-12T09:05:06.603Z,416.70
2018-12-12T09:07:35.781Z,425.90
2018-12-12T09:10:06.722Z,437.83
2018-12-12T09:12:36.324Z,436.53
2018-12-12T09:15:06.517Z,409.20
2018-12-12T09:17:35.873Z,412.27
2018-12-12T09:20:06.422Z,409.70
2018-12-12T09:22:35.604Z,415.77
2018-12-12T09:25:05.949Z,430.87
2018-12-12T09:27:35.128Z,437.07
2018-12-12T09:30:05.867Z,439.30
2018-12-12T09:32:35.127Z,440.20
2018-12-12T09:35:05.156Z,433.20
2018-12-12T09:37:34.369Z,421.13
2018-12-12T09:40:03.548Z,413.07
2018-12-12T09:42:32.762Z,401.33
2018-12-12T09:45:01.969Z,396.67
2018-12-12T09:47:31.343Z,390.97
2018-12-12T09:50:00.521Z,380.77
2018-12-12T09:52:29.701Z,377.40
2018-12-12T09:54:58.929Z,370.80
2018-12-12T09:57:28.682Z,365.87
2018-12-12T09:59:57.927Z,358.73
2018-12-12T10:02:27.331Z,357.37
2018-12-12T10:04:56.769Z,350.23
2018-12-12T10:07:25.931Z,347.63
2018-12-12T10:09:55.184Z,347.93
2018-12-12T10:12:24.642Z,342.97
2018-12-12T10:14:54.099Z,336.07
2018-12-12T10:17:23.320Z,336.00
2018-12-12T10:19:52.776Z,328.63
2018-12-12T10:22:22.234Z,327.17
2018-12-12T10:24:51.411Z,321.73
2018-12-12T10:27:21.026Z,317.80
2018-12-12T10:29:50.468Z,312.80
2018-12-12T10:32:19.633Z,324.37
2018-12-12T10:34:49.063Z,336.97
2018-12-12T10:37:18.225Z,356.73
2018-12-12T10:39:47.680Z,358.53
2018-12-12T10:42:17.094Z,369.60
2018-12-12T10:44:46.321Z,366.67
2018-12-12T10:47:15.483Z,361.27
2018-12-12T10:49:44.713Z,358.63
2018-12-12T10:52:14.131Z,351.67
2018-12-12T10:54:43.549Z,343.13
2018-12-12T10:57:12.753Z,336.37
2018-12-12T10:59:42.331Z,331.07
2018-12-12T11:02:29.182Z,329.13
2018-12-12T11:04:58.828Z,326.63
2018-12-12T11:07:28.665Z,321.80
2018-12-12T11:09:58.084Z,317.23
2018-12-12T11:12:27.512Z,317.33
2018-12-12T11:14:56.710Z,303.07
2018-12-12T11:17:25.897Z,305.47
2018-12-12T11:19:55.318Z,301.70
2018-12-12T11:22:24.534Z,322.30
2018-12-12T11:24:53.942Z,342.80
2018-12-12T11:27:23.160Z,360.23
2018-12-12T11:29:52.406Z,360.00
2018-12-12T11:32:21.946Z,351.03
2018-12-12T11:34:51.465Z,521.50
2018-12-12T11:37:20.875Z,1041.50
2018-12-12T11:39:50.046Z,734.07
2018-12-12T11:42:19.234Z,381.47
2018-12-12T11:44:48.421Z,163.80
2018-12-12T11:47:18.279Z,70.43
2018-12-12T11:49:47.443Z,41.53
2018-12-12T11:52:16.934Z,22.70
2018-12-12T11:54:46.098Z,19.33
2018-12-12T11:57:15.841Z,17.23
2018-12-12T11:59:45.266Z,19.50
2018-12-12T12:02:15.901Z,14.63
2018-12-12T12:04:45.058Z,12.03
2018-12-12T12:07:14.210Z,10.97
2018-12-12T12:09:43.389Z,9.10
2018-12-12T12:12:12.558Z,15.20
2018-12-12T12:14:41.745Z,23.50
2018-12-12T12:17:11.188Z,17.05
2018-12-12T12:19:40.595Z,12.00
2018-12-12T12:22:10.094Z,10.35
2018-12-12T12:24:39.258Z,8.60
